MAS1208 WMKK-WMKA
Flight info
| Callsign | MAS1208 |
|---|---|
| Flight time | 0h 47m |
| Altitude | 28000 |
| Route | ATIMU2D ATIMU Y506 VPG JERAI1E |
| Aircraft | B738/M-SDE2E3FGHIRWXY/LB1 |
Departure
| Time | 2026-05-08 02:37 |
|---|---|
| Airport | Kuala Lumpur International Airport (WMKK) |
Arrival
| Time | 2026-05-08 03:24 |
|---|---|
| Airport | Sultan Abdul Halim Airport (WMKA) |
| Time | Latitude | Longitude | Altitude | Speed | Heading |
|---|---|---|---|---|---|
| 2026-05-08 01:59 | 2.75526 | 101.70823 | 72 ft | 0 kts | 146° |
| 2026-05-08 02:21 | 2.75542 | 101.70813 | 62 ft | 4 kts | 142° |
| 2026-05-08 02:22 | 2.75555 | 101.70795 | 65 ft | 4 kts | 86° |
| 2026-05-08 02:22 | 2.75546 | 101.70773 | 67 ft | 2 kts | 56° |
| 2026-05-08 02:22 | 2.75543 | 101.70768 | 64 ft | 0 kts | 56° |
| 2026-05-08 02:26 | 2.75548 | 101.70776 | 72 ft | 3 kts | 56° |
| 2026-05-08 02:27 | 2.75570 | 101.70810 | 72 ft | 8 kts | 57° |
| 2026-05-08 02:27 | 2.75601 | 101.70855 | 68 ft | 7 kts | 56° |
| 2026-05-08 02:27 | 2.75628 | 101.70897 | 70 ft | 7 kts | 56° |
| 2026-05-08 02:27 | 2.75655 | 101.70937 | 63 ft | 7 kts | 56° |
| 2026-05-08 02:28 | 2.75681 | 101.70976 | 68 ft | 7 kts | 56° |
| 2026-05-08 02:28 | 2.75707 | 101.71015 | 72 ft | 7 kts | 59° |
| 2026-05-08 02:28 | 2.75707 | 101.71059 | 72 ft | 7 kts | 115° |
| 2026-05-08 02:28 | 2.75668 | 101.71094 | 65 ft | 9 kts | 146° |
| 2026-05-08 02:29 | 2.75610 | 101.71133 | 67 ft | 10 kts | 146° |
| 2026-05-08 02:29 | 2.75550 | 101.71173 | 68 ft | 10 kts | 146° |
| 2026-05-08 02:29 | 2.75493 | 101.71211 | 68 ft | 10 kts | 146° |
| 2026-05-08 02:29 | 2.75436 | 101.71249 | 72 ft | 10 kts | 146° |
| 2026-05-08 02:30 | 2.75377 | 101.71262 | 72 ft | 9 kts | 212° |
| 2026-05-08 02:30 | 2.75336 | 101.71213 | 72 ft | 9 kts | 235° |
| 2026-05-08 02:30 | 2.75301 | 101.71161 | 72 ft | 9 kts | 236° |
| 2026-05-08 02:30 | 2.75266 | 101.71111 | 67 ft | 9 kts | 236° |
| 2026-05-08 02:31 | 2.75233 | 101.71062 | 69 ft | 8 kts | 236° |
| 2026-05-08 02:31 | 2.75201 | 101.71014 | 66 ft | 8 kts | 236° |
| 2026-05-08 02:31 | 2.75169 | 101.70969 | 64 ft | 8 kts | 236° |
| 2026-05-08 02:31 | 2.75139 | 101.70924 | 72 ft | 8 kts | 236° |
| 2026-05-08 02:32 | 2.75110 | 101.70881 | 72 ft | 7 kts | 235° |
| 2026-05-08 02:32 | 2.75081 | 101.70839 | 69 ft | 7 kts | 236° |
| 2026-05-08 02:32 | 2.75050 | 101.70792 | 72 ft | 9 kts | 236° |
| 2026-05-08 02:32 | 2.75011 | 101.70735 | 72 ft | 11 kts | 236° |
| 2026-05-08 02:33 | 2.74965 | 101.70668 | 72 ft | 12 kts | 236° |
| 2026-05-08 02:33 | 2.74917 | 101.70597 | 65 ft | 12 kts | 236° |
| 2026-05-08 02:33 | 2.74870 | 101.70528 | 62 ft | 12 kts | 236° |
| 2026-05-08 02:33 | 2.74824 | 101.70460 | 69 ft | 12 kts | 236° |
| 2026-05-08 02:34 | 2.74779 | 101.70394 | 68 ft | 11 kts | 236° |
| 2026-05-08 02:34 | 2.74735 | 101.70328 | 65 ft | 11 kts | 236° |
| 2026-05-08 02:34 | 2.74691 | 101.70263 | 62 ft | 11 kts | 235° |
| 2026-05-08 02:34 | 2.74648 | 101.70200 | 62 ft | 11 kts | 236° |
| 2026-05-08 02:35 | 2.74606 | 101.70137 | 61 ft | 11 kts | 236° |
| 2026-05-08 02:35 | 2.74562 | 101.70072 | 62 ft | 12 kts | 236° |
| 2026-05-08 02:35 | 2.74515 | 101.70003 | 55 ft | 12 kts | 236° |
| 2026-05-08 02:35 | 2.74465 | 101.69929 | 56 ft | 13 kts | 236° |
| 2026-05-08 02:36 | 2.74416 | 101.69856 | 61 ft | 13 kts | 236° |
| 2026-05-08 02:36 | 2.74358 | 101.69795 | 58 ft | 12 kts | 197° |
| 2026-05-08 02:36 | 2.74296 | 101.69814 | 57 ft | 3 kts | 146° |
| 2026-05-08 02:36 | 2.74288 | 101.69820 | 58 ft | 5 kts | 146° |
| 2026-05-08 02:37 | 2.74105 | 101.69943 | 57 ft | 69 kts | 146° |
| 2026-05-08 02:37 | 2.73510 | 101.70341 | 57 ft | 134 kts | 146° |
| 2026-05-08 02:37 | 2.72596 | 101.70947 | 190 ft | 174 kts | 147° |
| 2026-05-08 02:37 | 2.71597 | 101.71618 | 961 ft | 168 kts | 146° |
| 2026-05-08 02:38 | 2.70978 | 101.72037 | 1613 ft | 161 kts | 147° |
| 2026-05-08 02:38 | 2.70543 | 101.72329 | 1926 ft | 165 kts | 147° |
| 2026-05-08 02:38 | 2.69634 | 101.72940 | 2417 ft | 185 kts | 147° |
| 2026-05-08 02:38 | 2.68468 | 101.73723 | 2700 ft | 215 kts | 146° |
| 2026-05-08 02:39 | 2.67151 | 101.74590 | 2935 ft | 239 kts | 152° |
| 2026-05-08 02:39 | 2.65458 | 101.74901 | 3218 ft | 261 kts | 190° |
| 2026-05-08 02:39 | 2.63835 | 101.74090 | 4023 ft | 265 kts | 222° |
| 2026-05-08 02:39 | 2.62805 | 101.72604 | 4919 ft | 269 kts | 249° |
| 2026-05-08 02:40 | 2.62540 | 101.70714 | 5736 ft | 276 kts | 272° |
| 2026-05-08 02:40 | 2.62774 | 101.68795 | 6549 ft | 280 kts | 277° |
| 2026-05-08 02:40 | 2.63080 | 101.66882 | 7287 ft | 284 kts | 277° |
| 2026-05-08 02:40 | 2.63369 | 101.64914 | 8054 ft | 288 kts | 276° |
| 2026-05-08 02:41 | 2.63670 | 101.62890 | 8830 ft | 293 kts | 283° |
| 2026-05-08 02:41 | 2.64632 | 101.61087 | 9581 ft | 299 kts | 308° |
| 2026-05-08 02:41 | 2.65946 | 101.59501 | 10284 ft | 304 kts | 310° |
| 2026-05-08 02:41 | 2.67367 | 101.57832 | 10521 ft | 328 kts | 310° |
| 2026-05-08 02:42 | 2.68882 | 101.56041 | 10868 ft | 343 kts | 310° |
| 2026-05-08 02:42 | 2.70426 | 101.54190 | 11498 ft | 349 kts | 310° |
| 2026-05-08 02:42 | 2.71975 | 101.52311 | 12207 ft | 352 kts | 310° |
| 2026-05-08 02:42 | 2.73533 | 101.50408 | 12925 ft | 356 kts | 310° |
| 2026-05-08 02:43 | 2.75106 | 101.48476 | 13641 ft | 360 kts | 310° |
| 2026-05-08 02:43 | 2.76696 | 101.46521 | 14268 ft | 365 kts | 310° |
| 2026-05-08 02:43 | 2.78304 | 101.44539 | 14923 ft | 368 kts | 310° |
| 2026-05-08 02:43 | 2.79923 | 101.42543 | 15595 ft | 372 kts | 310° |
| 2026-05-08 02:44 | 2.81560 | 101.40526 | 16226 ft | 376 kts | 310° |
| 2026-05-08 02:44 | 2.83217 | 101.38485 | 16871 ft | 380 kts | 310° |
| 2026-05-08 02:44 | 2.84914 | 101.36439 | 17501 ft | 383 kts | 313° |
| 2026-05-08 02:44 | 2.86749 | 101.34490 | 18129 ft | 387 kts | 316° |
| 2026-05-08 02:45 | 2.88667 | 101.32583 | 18662 ft | 391 kts | 317° |
| 2026-05-08 02:45 | 2.90622 | 101.30675 | 19193 ft | 394 kts | 317° |
| 2026-05-08 02:45 | 2.92588 | 101.28752 | 19720 ft | 398 kts | 317° |
| 2026-05-08 02:45 | 2.94572 | 101.26799 | 20236 ft | 401 kts | 317° |
| 2026-05-08 02:46 | 2.96561 | 101.24827 | 20749 ft | 405 kts | 316° |
| 2026-05-08 02:46 | 2.98562 | 101.22833 | 21254 ft | 408 kts | 316° |
| 2026-05-08 02:46 | 3.00581 | 101.20814 | 21754 ft | 412 kts | 316° |
| 2026-05-08 02:46 | 3.02612 | 101.18781 | 22229 ft | 415 kts | 316° |
| 2026-05-08 02:47 | 3.04666 | 101.16724 | 22712 ft | 419 kts | 316° |
| 2026-05-08 02:47 | 3.06732 | 101.14656 | 23183 ft | 422 kts | 316° |
| 2026-05-08 02:47 | 3.08811 | 101.12574 | 23613 ft | 425 kts | 316° |
| 2026-05-08 02:47 | 3.10909 | 101.10473 | 23999 ft | 428 kts | 316° |
| 2026-05-08 02:48 | 3.13020 | 101.08358 | 24409 ft | 430 kts | 316° |
| 2026-05-08 02:48 | 3.15135 | 101.06239 | 24797 ft | 432 kts | 316° |
| 2026-05-08 02:48 | 3.16547 | 101.04825 | 25052 ft | 434 kts | 316° |
| 2026-05-08 02:48 | 3.18684 | 101.02685 | 25429 ft | 436 kts | 316° |
| 2026-05-08 02:49 | 3.21673 | 100.99931 | 25900 ft | 438 kts | 327° |
| 2026-05-08 02:49 | 3.23419 | 100.98934 | 26124 ft | 436 kts | 338° |
| 2026-05-08 02:49 | 3.26297 | 100.98019 | 26508 ft | 434 kts | 353° |
| 2026-05-08 02:49 | 3.29295 | 100.97834 | 26878 ft | 432 kts | 2° |
| 2026-05-08 02:50 | 3.32311 | 100.97873 | 27262 ft | 434 kts | 3° |
| 2026-05-08 02:50 | 3.35329 | 100.97933 | 27712 ft | 435 kts | 3° |
| 2026-05-08 02:50 | 3.38371 | 100.97985 | 27888 ft | 439 kts | 3° |
| 2026-05-08 02:50 | 3.41438 | 100.98020 | 27904 ft | 442 kts | 2° |
| 2026-05-08 02:51 | 3.44508 | 100.98039 | 27902 ft | 440 kts | 2° |
| 2026-05-08 02:51 | 3.47566 | 100.98049 | 27911 ft | 439 kts | 2° |
| 2026-05-08 02:51 | 3.50620 | 100.98056 | 27915 ft | 439 kts | 2° |
| 2026-05-08 02:51 | 3.53675 | 100.98063 | 27915 ft | 439 kts | 2° |
| 2026-05-08 02:52 | 3.56733 | 100.98070 | 27922 ft | 439 kts | 2° |
| 2026-05-08 02:52 | 3.59790 | 100.98079 | 27914 ft | 439 kts | 2° |
| 2026-05-08 02:52 | 3.62846 | 100.98088 | 27911 ft | 440 kts | 2° |
| 2026-05-08 02:52 | 3.65910 | 100.97926 | 27900 ft | 442 kts | 354° |
| 2026-05-08 02:53 | 3.68919 | 100.97297 | 27921 ft | 444 kts | 346° |
| 2026-05-08 02:53 | 3.71817 | 100.96194 | 27927 ft | 446 kts | 338° |
| 2026-05-08 02:53 | 3.74650 | 100.94922 | 27917 ft | 447 kts | 337° |
| 2026-05-08 02:53 | 3.77475 | 100.93618 | 27903 ft | 447 kts | 337° |
| 2026-05-08 02:54 | 3.80300 | 100.92315 | 27911 ft | 447 kts | 337° |
| 2026-05-08 02:54 | 3.83131 | 100.91023 | 27906 ft | 447 kts | 338° |
| 2026-05-08 02:54 | 3.85914 | 100.89767 | 27907 ft | 447 kts | 338° |
| 2026-05-08 02:54 | 3.88802 | 100.88473 | 27911 ft | 447 kts | 338° |
| 2026-05-08 02:55 | 3.91642 | 100.87206 | 27908 ft | 447 kts | 338° |
| 2026-05-08 02:55 | 3.97282 | 100.84695 | 27911 ft | 447 kts | 338° |
| 2026-05-08 02:55 | 4.00130 | 100.83426 | 27911 ft | 447 kts | 338° |
| 2026-05-08 02:56 | 4.02971 | 100.82160 | 27918 ft | 447 kts | 338° |
| 2026-05-08 02:56 | 4.05807 | 100.80895 | 27908 ft | 447 kts | 338° |
| 2026-05-08 02:56 | 4.08651 | 100.79626 | 27909 ft | 447 kts | 338° |
| 2026-05-08 02:56 | 4.11488 | 100.78360 | 27910 ft | 447 kts | 338° |
| 2026-05-08 02:57 | 4.14330 | 100.77092 | 27913 ft | 447 kts | 338° |
| 2026-05-08 02:57 | 4.17174 | 100.75824 | 27904 ft | 447 kts | 338° |
| 2026-05-08 02:57 | 4.20013 | 100.74555 | 27914 ft | 447 kts | 338° |
| 2026-05-08 02:57 | 4.22853 | 100.73283 | 27915 ft | 447 kts | 338° |
| 2026-05-08 02:58 | 4.25689 | 100.72011 | 27907 ft | 447 kts | 338° |
| 2026-05-08 02:58 | 4.28530 | 100.70736 | 27907 ft | 447 kts | 338° |
| 2026-05-08 02:58 | 4.31369 | 100.69462 | 27911 ft | 447 kts | 338° |
| 2026-05-08 02:58 | 4.34203 | 100.68191 | 27916 ft | 447 kts | 338° |
| 2026-05-08 02:59 | 4.37046 | 100.66916 | 27909 ft | 447 kts | 338° |
| 2026-05-08 02:59 | 4.39888 | 100.65641 | 27911 ft | 447 kts | 338° |
| 2026-05-08 02:59 | 4.42729 | 100.64366 | 27906 ft | 447 kts | 338° |
| 2026-05-08 02:59 | 4.45559 | 100.63096 | 27894 ft | 441 kts | 338° |
| 2026-05-08 03:00 | 4.48337 | 100.61848 | 27903 ft | 436 kts | 338° |
| 2026-05-08 03:00 | 4.51097 | 100.60609 | 27906 ft | 434 kts | 338° |
| 2026-05-08 03:00 | 4.53860 | 100.59370 | 27912 ft | 436 kts | 338° |
| 2026-05-08 03:00 | 4.56632 | 100.58127 | 27698 ft | 438 kts | 338° |
| 2026-05-08 03:01 | 4.59402 | 100.56883 | 27309 ft | 433 kts | 338° |
| 2026-05-08 03:01 | 4.62146 | 100.55651 | 26821 ft | 430 kts | 338° |
| 2026-05-08 03:01 | 4.64863 | 100.54431 | 26347 ft | 426 kts | 338° |
| 2026-05-08 03:01 | 4.67558 | 100.53221 | 25877 ft | 423 kts | 338° |
| 2026-05-08 03:02 | 4.70236 | 100.52018 | 25371 ft | 421 kts | 338° |
| 2026-05-08 03:02 | 4.72901 | 100.50822 | 24887 ft | 419 kts | 338° |
| 2026-05-08 03:02 | 4.75551 | 100.49632 | 24397 ft | 417 kts | 338° |
| 2026-05-08 03:02 | 4.78196 | 100.48444 | 23905 ft | 415 kts | 338° |
| 2026-05-08 03:03 | 4.80827 | 100.47263 | 23408 ft | 414 kts | 338° |
| 2026-05-08 03:03 | 4.83452 | 100.46083 | 22852 ft | 412 kts | 338° |
| 2026-05-08 03:03 | 4.86056 | 100.44914 | 22356 ft | 408 kts | 338° |
| 2026-05-08 03:03 | 4.88638 | 100.43753 | 21864 ft | 405 kts | 338° |
| 2026-05-08 03:04 | 4.91197 | 100.42603 | 21392 ft | 402 kts | 338° |
| 2026-05-08 03:04 | 4.93738 | 100.41461 | 20921 ft | 399 kts | 338° |
| 2026-05-08 03:04 | 4.96262 | 100.40327 | 20455 ft | 396 kts | 338° |
| 2026-05-08 03:04 | 4.98769 | 100.39201 | 19986 ft | 394 kts | 338° |
| 2026-05-08 03:05 | 5.01227 | 100.38096 | 19516 ft | 392 kts | 338° |
| 2026-05-08 03:05 | 5.03708 | 100.36981 | 19044 ft | 390 kts | 338° |
| 2026-05-08 03:05 | 5.06179 | 100.35870 | 18575 ft | 388 kts | 338° |
| 2026-05-08 03:05 | 5.08642 | 100.34763 | 18103 ft | 387 kts | 338° |
| 2026-05-08 03:06 | 5.11091 | 100.33662 | 17591 ft | 385 kts | 338° |
| 2026-05-08 03:06 | 5.13523 | 100.32568 | 17120 ft | 381 kts | 338° |
| 2026-05-08 03:06 | 5.15934 | 100.31483 | 16667 ft | 378 kts | 338° |
| 2026-05-08 03:06 | 5.18321 | 100.30410 | 16205 ft | 375 kts | 338° |
| 2026-05-08 03:07 | 5.20695 | 100.29342 | 15765 ft | 372 kts | 338° |
| 2026-05-08 03:07 | 5.23051 | 100.28282 | 15327 ft | 369 kts | 338° |
| 2026-05-08 03:07 | 5.25393 | 100.27239 | 14880 ft | 366 kts | 340° |
| 2026-05-08 03:07 | 5.27822 | 100.26567 | 14443 ft | 361 kts | 354° |
| 2026-05-08 03:08 | 5.30312 | 100.26422 | 13984 ft | 357 kts | 6° |
| 2026-05-08 03:08 | 5.32755 | 100.26726 | 13597 ft | 351 kts | 11° |
| 2026-05-08 03:08 | 5.35163 | 100.27099 | 13151 ft | 349 kts | 11° |
| 2026-05-08 03:08 | 5.37555 | 100.27482 | 12716 ft | 347 kts | 11° |
| 2026-05-08 03:09 | 5.39927 | 100.27858 | 12280 ft | 344 kts | 11° |
| 2026-05-08 03:09 | 5.42289 | 100.28226 | 11877 ft | 342 kts | 11° |
| 2026-05-08 03:09 | 5.44632 | 100.28585 | 11472 ft | 339 kts | 10° |
| 2026-05-08 03:09 | 5.46958 | 100.28937 | 11053 ft | 337 kts | 10° |
| 2026-05-08 03:10 | 5.49267 | 100.29284 | 10640 ft | 335 kts | 9° |
| 2026-05-08 03:10 | 5.51545 | 100.29625 | 10456 ft | 325 kts | 9° |
| 2026-05-08 03:10 | 5.53750 | 100.29954 | 10299 ft | 316 kts | 9° |
| 2026-05-08 03:10 | 5.55889 | 100.30273 | 10159 ft | 306 kts | 9° |
| 2026-05-08 03:11 | 5.57963 | 100.30582 | 10018 ft | 297 kts | 9° |
| 2026-05-08 03:11 | 5.59978 | 100.30883 | 9892 ft | 288 kts | 9° |
| 2026-05-08 03:11 | 5.61985 | 100.31183 | 9453 ft | 292 kts | 9° |
| 2026-05-08 03:11 | 5.63997 | 100.31484 | 9087 ft | 292 kts | 9° |
| 2026-05-08 03:12 | 5.65999 | 100.31783 | 8771 ft | 290 kts | 9° |
| 2026-05-08 03:12 | 5.67991 | 100.32081 | 8455 ft | 289 kts | 9° |
| 2026-05-08 03:12 | 5.69969 | 100.32376 | 8146 ft | 287 kts | 9° |
| 2026-05-08 03:12 | 5.71939 | 100.32671 | 7841 ft | 286 kts | 9° |
| 2026-05-08 03:13 | 5.73900 | 100.32963 | 7534 ft | 284 kts | 9° |
| 2026-05-08 03:13 | 5.75830 | 100.33252 | 7237 ft | 283 kts | 9° |
| 2026-05-08 03:13 | 5.77800 | 100.33546 | 6942 ft | 282 kts | 9° |
| 2026-05-08 03:13 | 5.79702 | 100.33833 | 6701 ft | 278 kts | 9° |
| 2026-05-08 03:14 | 5.81605 | 100.34120 | 6460 ft | 275 kts | 9° |
| 2026-05-08 03:14 | 5.83488 | 100.34405 | 6215 ft | 272 kts | 9° |
| 2026-05-08 03:14 | 5.85350 | 100.34686 | 5966 ft | 269 kts | 9° |
| 2026-05-08 03:14 | 5.87191 | 100.34963 | 5740 ft | 265 kts | 9° |
| 2026-05-08 03:15 | 5.88974 | 100.35019 | 5672 ft | 250 kts | 347° |
| 2026-05-08 03:15 | 5.90441 | 100.34319 | 5791 ft | 224 kts | 323° |
| 2026-05-08 03:15 | 5.91471 | 100.33219 | 5682 ft | 209 kts | 302° |
| 2026-05-08 03:15 | 5.92133 | 100.31982 | 5591 ft | 194 kts | 296° |
| 2026-05-08 03:16 | 5.92696 | 100.30795 | 5382 ft | 187 kts | 295° |
| 2026-05-08 03:16 | 5.93250 | 100.29620 | 5100 ft | 185 kts | 295° |
| 2026-05-08 03:16 | 5.93805 | 100.28450 | 4807 ft | 184 kts | 295° |
| 2026-05-08 03:16 | 5.94356 | 100.27297 | 4509 ft | 183 kts | 295° |
| 2026-05-08 03:17 | 5.94906 | 100.26151 | 4245 ft | 180 kts | 295° |
| 2026-05-08 03:17 | 5.95446 | 100.25028 | 4066 ft | 178 kts | 295° |
| 2026-05-08 03:17 | 5.95988 | 100.23901 | 3919 ft | 181 kts | 295° |
| 2026-05-08 03:17 | 5.96539 | 100.22758 | 3757 ft | 182 kts | 295° |
| 2026-05-08 03:18 | 5.97275 | 100.21739 | 3560 ft | 183 kts | 328° |
| 2026-05-08 03:18 | 5.98470 | 100.21573 | 3422 ft | 176 kts | 21° |
| 2026-05-08 03:18 | 5.99478 | 100.22243 | 3343 ft | 179 kts | 36° |
| 2026-05-08 03:18 | 6.00512 | 100.22969 | 3188 ft | 183 kts | 37° |
| 2026-05-08 03:19 | 6.01515 | 100.23751 | 3040 ft | 181 kts | 40° |
| 2026-05-08 03:19 | 6.02462 | 100.24571 | 2892 ft | 178 kts | 42° |
| 2026-05-08 03:19 | 6.03376 | 100.25398 | 2756 ft | 176 kts | 43° |
| 2026-05-08 03:19 | 6.04281 | 100.26229 | 2628 ft | 176 kts | 43° |
| 2026-05-08 03:20 | 6.05185 | 100.27064 | 2478 ft | 177 kts | 43° |
| 2026-05-08 03:20 | 6.06088 | 100.27899 | 2280 ft | 174 kts | 43° |
| 2026-05-08 03:20 | 6.06968 | 100.28714 | 2080 ft | 171 kts | 43° |
| 2026-05-08 03:20 | 6.07850 | 100.29530 | 1916 ft | 173 kts | 43° |
| 2026-05-08 03:21 | 6.08738 | 100.30352 | 1779 ft | 174 kts | 43° |
| 2026-05-08 03:21 | 6.09615 | 100.31163 | 1719 ft | 167 kts | 43° |
| 2026-05-08 03:21 | 6.10451 | 100.31937 | 1686 ft | 160 kts | 43° |
| 2026-05-08 03:21 | 6.11267 | 100.32691 | 1704 ft | 160 kts | 43° |
| 2026-05-08 03:22 | 6.12058 | 100.33424 | 1578 ft | 153 kts | 43° |
| 2026-05-08 03:22 | 6.12821 | 100.34130 | 1435 ft | 144 kts | 43° |
| 2026-05-08 03:22 | 6.13545 | 100.34800 | 1235 ft | 142 kts | 43° |
| 2026-05-08 03:22 | 6.14272 | 100.35473 | 1049 ft | 142 kts | 43° |
| 2026-05-08 03:23 | 6.15001 | 100.36147 | 874 ft | 142 kts | 43° |
| 2026-05-08 03:23 | 6.15728 | 100.36823 | 684 ft | 143 kts | 43° |
| 2026-05-08 03:23 | 6.16457 | 100.37524 | 505 ft | 142 kts | 44° |
| 2026-05-08 03:23 | 6.17172 | 100.38195 | 306 ft | 142 kts | 42° |
| 2026-05-08 03:24 | 6.17892 | 100.38843 | 122 ft | 135 kts | 41° |
| 2026-05-08 03:24 | 6.18537 | 100.39436 | 18 ft | 113 kts | 41° |
| 2026-05-08 03:24 | 6.19019 | 100.39878 | 20 ft | 72 kts | 42° |
| 2026-05-08 03:24 | 6.19277 | 100.40116 | 18 ft | 35 kts | 43° |
| 2026-05-08 03:25 | 6.19451 | 100.40277 | 17 ft | 33 kts | 40° |
| 2026-05-08 03:25 | 6.19608 | 100.40421 | 17 ft | 29 kts | 43° |
| 2026-05-08 03:25 | 6.19753 | 100.40556 | 20 ft | 27 kts | 43° |
| 2026-05-08 03:25 | 6.19899 | 100.40616 | 18 ft | 17 kts | 29° |
| 2026-05-08 03:26 | 6.19900 | 100.40669 | 18 ft | 7 kts | 170° |
| 2026-05-08 03:26 | 6.19854 | 100.40646 | 20 ft | 8 kts | 217° |
| 2026-05-08 03:26 | 6.19806 | 100.40601 | 21 ft | 11 kts | 223° |
| 2026-05-08 03:26 | 6.19742 | 100.40542 | 19 ft | 14 kts | 222° |
| 2026-05-08 03:27 | 6.19659 | 100.40466 | 18 ft | 18 kts | 222° |
| 2026-05-08 03:27 | 6.19559 | 100.40375 | 17 ft | 21 kts | 222° |
| 2026-05-08 03:27 | 6.19447 | 100.40272 | 16 ft | 23 kts | 222° |
| 2026-05-08 03:27 | 6.19323 | 100.40158 | 17 ft | 24 kts | 222° |
| 2026-05-08 03:28 | 6.19200 | 100.40047 | 17 ft | 24 kts | 222° |
| 2026-05-08 03:28 | 6.19073 | 100.39931 | 19 ft | 25 kts | 222° |
| 2026-05-08 03:28 | 6.18952 | 100.39820 | 19 ft | 19 kts | 225° |
| 2026-05-08 03:28 | 6.18980 | 100.39716 | 17 ft | 9 kts | 312° |
| 2026-05-08 03:29 | 6.19027 | 100.39672 | 16 ft | 9 kts | 331° |
| 2026-05-08 03:29 | 6.19075 | 100.39639 | 16 ft | 8 kts | 309° |
| 2026-05-08 03:29 | 6.19094 | 100.39618 | 16 ft | 2 kts | 310° |
| 2026-05-08 03:29 | 6.19096 | 100.39615 | 16 ft | 0 kts | 310° |